Time;durP1;ratioP1;P1;durP2;ratioP2;P2;SDS_P1;SDS_P2;PMS_P1;PMS_P2;Temp;Humidity;BMP_temperature;BMP_pressure;BME280_temperature;BME280_humidity;BME280_pressure;Samples;Min_cycle;Max_cycle;Signal;HPM_P1;HPM_P2
2023/05/09 00:02:17;;;;;;;23.75;14.18;;;;;21.30;101603.00;;;;5056226;28;20466;-77
2023/05/09 00:04:44;;;;;;;21.35;12.55;;;;;21.30;101597.00;;;;5058568;28;20197;-77
2023/05/09 00:07:11;;;;;;;18.88;12.50;;;;;21.20;101598.00;;;;5059958;28;20286;-78
2023/05/09 00:09:39;;;;;;;23.58;14.57;;;;;21.20;101597.00;;;;5059234;28;20216;-78
2023/05/09 00:12:08;;;;;;;20.63;12.70;;;;;21.20;101595.00;;;;5053188;28;20204;-78
2023/05/09 00:14:36;;;;;;;21.67;13.05;;;;;21.20;101587.00;;;;5063860;28;20257;-78
2023/05/09 00:17:03;;;;;;;21.50;13.55;;;;;21.20;101593.00;;;;5052394;28;20207;-78
2023/05/09 00:19:31;;;;;;;21.88;13.35;;;;;21.20;101592.00;;;;5059977;28;20210;-78
2023/05/09 00:21:58;;;;;;;24.58;13.95;;;;;21.20;101596.00;;;;5062568;28;20199;-77
2023/05/09 00:24:25;;;;;;;26.02;15.35;;;;;21.20;101584.00;;;;5052961;28;20196;-78
2023/05/09 00:26:53;;;;;;;25.88;13.85;;;;;21.20;101589.00;;;;5056617;28;20199;-78
2023/05/09 00:29:21;;;;;;;18.73;13.30;;;;;21.20;101588.00;;;;5050211;28;20215;-78
2023/05/09 00:31:49;;;;;;;19.77;13.50;;;;;21.20;101588.00;;;;5054322;28;20204;-78
2023/05/09 00:34:16;;;;;;;22.58;13.40;;;;;21.20;101586.00;;;;5050598;28;20231;-78
2023/05/09 00:36:44;;;;;;;23.08;13.10;;;;;21.20;101588.00;;;;5061890;28;20195;-77
2023/05/09 00:39:12;;;;;;;22.83;13.63;;;;;21.20;101576.00;;;;5053397;28;20210;-77
2023/05/09 00:41:39;;;;;;;19.63;12.68;;;;;21.10;101574.00;;;;5057682;28;20649;-78
2023/05/09 00:44:06;;;;;;;25.05;14.35;;;;;21.10;101572.00;;;;5058295;28;20680;-78
2023/05/09 00:46:35;;;;;;;25.35;13.57;;;;;21.10;101575.00;;;;5057026;28;20204;-77
2023/05/09 00:49:03;;;;;;;22.73;14.07;;;;;21.10;101573.00;;;;5055789;28;20207;-78
2023/05/09 00:51:31;;;;;;;24.45;13.93;;;;;21.10;101566.00;;;;5053811;28;20202;-77
2023/05/09 00:53:59;;;;;;;25.58;14.00;;;;;21.10;101569.00;;;;5051446;28;20200;-77
2023/05/09 00:56:26;;;;;;;24.05;13.88;;;;;21.10;101565.00;;;;5050731;28;20208;-78
2023/05/09 00:58:54;;;;;;;22.95;13.63;;;;;21.10;101566.00;;;;5053332;28;20203;-78
2023/05/09 01:01:21;;;;;;;25.60;14.90;;;;;21.10;101561.00;;;;5049409;28;20195;-77
2023/05/09 01:03:51;;;;;;;23.77;13.85;;;;;21.10;101557.00;;;;5052078;28;20572;-78
2023/05/09 01:06:30;;;;;;;23.20;13.65;;;;;21.00;101552.00;;;;5049962;28;20249;-78
2023/05/09 01:09:02;;;;;;;25.42;14.25;;;;;21.00;101544.00;;;;5057549;28;20203;-77
2023/05/09 01:11:34;;;;;;;22.48;13.13;;;;;21.00;101543.00;;;;5058893;28;20200;-78
2023/05/09 01:14:12;;;;;;;24.42;13.75;;;;;21.00;101527.00;;;;5056920;28;20722;-78
2023/05/09 01:16:43;;;;;;;22.52;13.43;;;;;21.00;101524.00;;;;5053692;28;20673;-78
2023/05/09 01:19:33;;;;;;;21.95;12.32;;;;;20.90;101522.00;;;;5057457;28;20208;-77
2023/05/09 01:22:04;;;;;;;23.42;13.73;;;;;21.00;101521.00;;;;5050280;28;20203;-77
2023/05/09 01:24:51;;;;;;;20.50;12.15;;;;;20.90;101522.00;;;;5049196;28;20196;-78
2023/05/09 01:27:43;;;;;;;20.55;13.05;;;;;20.90;101523.00;;;;5066056;28;20199;-78
2023/05/09 01:30:13;;;;;;;20.77;12.88;;;;;21.00;101512.00;;;;5054290;28;20769;-78
2023/05/09 01:32:44;;;;;;;21.63;13.55;;;;;20.90;101510.00;;;;5060917;28;20245;-78
2023/05/09 01:35:14;;;;;;;21.45;12.68;;;;;21.00;101505.00;;;;5061648;28;20226;-78
2023/05/09 01:37:48;;;;;;;23.25;15.02;;;;;20.90;101497.00;;;;5060797;28;20202;-76
2023/05/09 01:40:19;;;;;;;22.90;13.10;;;;;20.90;101505.00;;;;5057881;28;20214;-76
2023/05/09 01:42:51;;;;;;;20.52;12.82;;;;;20.90;101497.00;;;;5049357;28;20210;-76
2023/05/09 01:45:21;;;;;;;21.38;14.07;;;;;20.90;101496.00;;;;5054614;28;20203;-77
2023/05/09 01:47:50;;;;;;;24.75;15.27;;;;;20.90;101503.00;;;;5058598;28;20195;-77
2023/05/09 01:50:19;;;;;;;24.88;14.40;;;;;20.90;101496.00;;;;5053151;28;20203;-77
2023/05/09 01:52:49;;;;;;;25.23;13.77;;;;;20.90;101492.00;;;;5049891;28;20196;-77
2023/05/09 01:55:18;;;;;;;24.90;13.68;;;;;20.90;101496.00;;;;5049093;28;20199;-77
2023/05/09 01:57:46;;;;;;;24.67;14.20;;;;;20.90;101488.00;;;;5048944;28;20200;-77
2023/05/09 02:00:15;;;;;;;25.27;14.27;;;;;20.90;101486.00;;;;5053531;28;20600;-77
2023/05/09 02:02:44;;;;;;;27.95;14.77;;;;;20.90;101492.00;;;;5054242;28;20927;-77
2023/05/09 02:05:14;;;;;;;24.38;14.73;;;;;20.90;101483.00;;;;5058018;28;20207;-77
2023/05/09 02:07:42;;;;;;;23.83;14.38;;;;;20.90;101480.00;;;;5048122;28;20286;-77
2023/05/09 02:10:11;;;;;;;21.85;13.55;;;;;20.90;101479.00;;;;5057849;28;20215;-77
2023/05/09 02:12:38;;;;;;;21.83;12.80;;;;;20.90;101479.00;;;;5051064;28;20231;-77
2023/05/09 02:15:07;;;;;;;23.38;14.05;;;;;20.90;101482.00;;;;5056835;28;21042;-77
2023/05/09 02:17:35;;;;;;;22.67;13.68;;;;;20.80;101474.00;;;;5055936;28;20234;-77
2023/05/09 02:20:04;;;;;;;23.48;13.02;;;;;20.80;101473.00;;;;5063146;28;20213;-78
2023/05/09 02:22:31;;;;;;;21.67;13.52;;;;;20.80;101473.00;;;;5052974;28;20249;-77
2023/05/09 02:24:59;;;;;;;21.20;14.70;;;;;20.80;101466.00;;;;5049464;28;20221;-77
2023/05/09 02:27:27;;;;;;;22.10;14.10;;;;;20.80;101473.00;;;;5048624;28;20200;-77
2023/05/09 02:30:00;;;;;;;24.20;14.13;;;;;20.80;101471.00;;;;5052777;28;20239;-77
2023/05/09 02:32:30;;;;;;;19.75;12.45;;;;;20.80;101473.00;;;;5053018;28;20202;-77
2023/05/09 02:34:59;;;;;;;21.30;13.35;;;;;20.80;101473.00;;;;5054181;28;20227;-77
2023/05/09 02:37:28;;;;;;;20.92;13.20;;;;;20.80;101462.00;;;;5051111;28;20199;-77
2023/05/09 02:39:55;;;;;;;20.30;11.98;;;;;20.80;101462.00;;;;5054462;28;20658;-77
2023/05/09 02:42:25;;;;;;;22.70;13.98;;;;;20.80;101470.00;;;;5056021;28;20211;-77
2023/05/09 02:44:52;;;;;;;22.02;12.77;;;;;20.80;101464.00;;;;5050533;28;20196;-77
2023/05/09 02:47:20;;;;;;;22.52;13.00;;;;;20.80;101464.00;;;;5049405;28;20639;-77
2023/05/09 02:49:47;;;;;;;23.77;12.98;;;;;20.70;101458.00;;;;5048033;28;20566;-77
2023/05/09 02:52:14;;;;;;;23.75;13.77;;;;;20.70;101461.00;;;;5051629;28;20253;-77
2023/05/09 02:54:43;;;;;;;21.90;13.73;;;;;20.70;101457.00;;;;5053573;28;20207;-77
2023/05/09 02:57:10;;;;;;;23.38;14.98;;;;;20.70;101453.00;;;;5051954;28;20210;-77
2023/05/09 02:59:38;;;;;;;20.60;13.30;;;;;20.70;101454.00;;;;5052105;28;20368;-77
2023/05/09 03:02:05;;;;;;;20.90;13.77;;;;;20.70;101448.00;;;;5050457;28;20215;-77
2023/05/09 03:04:33;;;;;;;21.83;13.57;;;;;20.70;101451.00;;;;5048954;28;20354;-77
2023/05/09 03:07:00;;;;;;;22.70;12.73;;;;;20.70;101446.00;;;;5055266;28;20207;-77
2023/05/09 03:09:27;;;;;;;21.80;14.30;;;;;20.70;101433.00;;;;5050930;28;20199;-77
2023/05/09 03:11:56;;;;;;;20.52;12.63;;;;;20.70;101437.00;;;;5063138;28;20246;-77
2023/05/09 03:14:23;;;;;;;22.02;13.10;;;;;20.70;101435.00;;;;5053254;28;20190;-77
2023/05/09 03:16:51;;;;;;;21.42;13.15;;;;;20.70;101428.00;;;;5041906;28;20293;-76
2023/05/09 03:19:19;;;;;;;20.25;12.35;;;;;20.70;101424.00;;;;5045271;28;20249;-76
2023/05/09 03:21:46;;;;;;;22.08;14.15;;;;;20.70;101425.00;;;;5055356;28;20282;-77
2023/05/09 03:24:13;;;;;;;21.35;13.13;;;;;20.70;101421.00;;;;5050718;28;20203;-77
2023/05/09 03:26:41;;;;;;;21.98;12.85;;;;;20.70;101407.00;;;;5049689;28;20203;-77
2023/05/09 03:29:09;;;;;;;23.30;13.48;;;;;20.70;101424.00;;;;5054181;28;20199;-76
2023/05/09 03:31:37;;;;;;;20.55;12.60;;;;;20.70;101412.00;;;;5048788;28;20227;-77
2023/05/09 03:34:04;;;;;;;18.63;11.90;;;;;20.70;101407.00;;;;5048696;28;20226;-77
2023/05/09 03:36:31;;;;;;;21.40;13.15;;;;;20.70;101396.00;;;;5049580;28;20195;-77
2023/05/09 03:38:59;;;;;;;21.17;12.30;;;;;20.70;101398.00;;;;5048612;28;20254;-77
2023/05/09 03:41:26;;;;;;;20.98;12.25;;;;;20.70;101389.00;;;;5049648;28;20203;-77
2023/05/09 03:43:53;;;;;;;19.15;12.23;;;;;20.70;101394.00;;;;5054610;28;20202;-77
2023/05/09 03:46:22;;;;;;;19.38;11.82;;;;;20.70;101393.00;;;;5056528;28;20199;-77
2023/05/09 03:48:49;;;;;;;18.13;12.10;;;;;20.70;101391.00;;;;5049362;28;20206;-77
2023/05/09 03:51:16;;;;;;;18.85;11.80;;;;;20.70;101391.00;;;;5055317;28;20272;-77
2023/05/09 03:53:45;;;;;;;22.05;12.77;;;;;20.70;101381.00;;;;5059224;28;20203;-77
2023/05/09 03:56:13;;;;;;;19.02;11.80;;;;;20.70;101380.00;;;;5050901;28;20190;-77
2023/05/09 03:58:40;;;;;;;17.88;11.25;;;;;20.70;101368.00;;;;5045249;28;22432;-78
2023/05/09 04:01:07;;;;;;;16.52;10.98;;;;;20.70;101370.00;;;;5032336;28;20207;-77
2023/05/09 04:03:37;;;;;;;17.48;11.68;;;;;20.60;101374.00;;;;5034119;28;20703;-77
2023/05/09 04:06:05;;;;;;;18.38;11.20;;;;;20.70;101367.00;;;;5039822;28;20485;-77
2023/05/09 04:08:33;;;;;;;17.88;11.85;;;;;20.60;101366.00;;;;5052090;28;20199;-77
2023/05/09 04:11:00;;;;;;;17.17;11.57;;;;;20.60;101365.00;;;;5057936;28;20229;-77
2023/05/09 04:13:28;;;;;;;18.60;10.05;;;;;20.60;101371.00;;;;5051168;28;20191;-77
2023/05/09 04:15:56;;;;;;;15.93;10.95;;;;;20.60;101369.00;;;;5053971;28;20241;-77
2023/05/09 04:18:23;;;;;;;15.32;10.45;;;;;20.60;101366.00;;;;5057474;28;20203;-77
2023/05/09 04:20:52;;;;;;;17.25;10.68;;;;;20.60;101375.00;;;;5049591;28;20207;-77
2023/05/09 04:23:19;;;;;;;14.27;9.25;;;;;20.60;101368.00;;;;5052739;28;20207;-77
2023/05/09 04:25:46;;;;;;;19.77;12.15;;;;;20.60;101364.00;;;;5054935;28;20199;-77
2023/05/09 04:28:14;;;;;;;15.18;9.98;;;;;20.60;101365.00;;;;5052170;28;20192;-77
2023/05/09 04:30:41;;;;;;;18.33;10.30;;;;;20.60;101362.00;;;;5052485;28;20212;-77
2023/05/09 04:33:08;;;;;;;14.75;9.93;;;;;20.60;101366.00;;;;5045481;28;20576;-77
2023/05/09 04:35:36;;;;;;;15.25;10.38;;;;;20.60;101359.00;;;;5052184;28;20212;-77
2023/05/09 04:38:04;;;;;;;14.63;10.43;;;;;20.60;101355.00;;;;5059338;28;20206;-77
2023/05/09 04:40:32;;;;;;;14.32;9.95;;;;;20.60;101351.00;;;;5055243;28;20203;-78
2023/05/09 04:42:59;;;;;;;13.13;8.70;;;;;20.60;101342.00;;;;5059397;28;20203;-78
2023/05/09 04:45:26;;;;;;;15.07;10.32;;;;;20.60;101346.00;;;;5055331;28;20296;-77
2023/05/09 04:47:54;;;;;;;12.63;8.68;;;;;20.70;101347.00;;;;5065737;28;20206;-77
2023/05/09 04:50:21;;;;;;;12.45;8.50;;;;;20.70;101344.00;;;;5052519;28;20206;-77
2023/05/09 04:52:48;;;;;;;16.05;9.05;;;;;20.70;101335.00;;;;5058865;28;20752;-77
2023/05/09 04:55:17;;;;;;;13.07;9.63;;;;;20.70;101334.00;;;;5050916;28;20195;-78
2023/05/09 04:57:45;;;;;;;13.73;9.07;;;;;20.70;101332.00;;;;5060808;28;20575;-77
2023/05/09 05:00:15;;;;;;;12.05;8.63;;;;;20.70;101331.00;;;;5062005;28;20290;-77
2023/05/09 05:02:42;;;;;;;12.90;9.00;;;;;20.70;101335.00;;;;5051939;28;20224;-77
2023/05/09 05:05:10;;;;;;;13.02;9.52;;;;;20.80;101322.00;;;;5059487;28;20199;-78
2023/05/09 05:07:38;;;;;;;10.80;8.88;;;;;20.80;101319.00;;;;5056385;28;20207;-77
2023/05/09 05:10:06;;;;;;;13.93;8.80;;;;;20.80;101319.00;;;;5054640;28;20204;-77
2023/05/09 05:12:35;;;;;;;12.45;8.98;;;;;20.80;101310.00;;;;5053619;28;20231;-78
2023/05/09 05:15:02;;;;;;;13.77;9.63;;;;;20.90;101310.00;;;;5056540;28;20580;-78
2023/05/09 05:17:29;;;;;;;12.48;8.85;;;;;20.90;101299.00;;;;5051990;28;20202;-77
2023/05/09 05:19:57;;;;;;;12.32;8.80;;;;;20.90;101297.00;;;;5060367;28;20196;-80
2023/05/09 05:22:25;;;;;;;11.57;8.18;;;;;20.90;101300.00;;;;5060223;28;20196;-81
2023/05/09 05:24:53;;;;;;;12.27;8.43;;;;;21.00;101300.00;;;;5056828;28;20202;-81
2023/05/09 05:27:20;;;;;;;10.80;8.10;;;;;21.00;101296.00;;;;5053514;28;20210;-80
2023/05/09 05:29:50;;;;;;;14.75;7.75;;;;;21.00;101288.00;;;;5051028;28;20203;-79
2023/05/09 05:32:17;;;;;;;11.93;7.90;;;;;21.00;101291.00;;;;5053497;28;20220;-79
2023/05/09 05:34:44;;;;;;;10.35;7.82;;;;;21.10;101284.00;;;;5060043;28;20235;-79
2023/05/09 05:37:12;;;;;;;11.18;7.75;;;;;21.20;101284.00;;;;5064582;28;20221;-78
2023/05/09 05:39:39;;;;;;;16.45;8.82;;;;;21.20;101289.00;;;;5051261;28;20661;-78
2023/05/09 05:42:06;;;;;;;11.50;7.78;;;;;21.20;101281.00;;;;5053385;28;20199;-78
2023/05/09 05:44:34;;;;;;;11.60;7.10;;;;;21.30;101270.00;;;;5056975;28;20285;-77
2023/05/09 05:47:02;;;;;;;10.13;7.22;;;;;21.30;101268.00;;;;5054184;28;20203;-77
2023/05/09 05:49:30;;;;;;;9.98;7.20;;;;;21.30;101279.00;;;;5051107;28;20670;-77
2023/05/09 05:51:57;;;;;;;12.27;7.65;;;;;21.40;101273.00;;;;5059480;28;20230;-78
2023/05/09 05:54:24;;;;;;;10.80;7.47;;;;;21.40;101274.00;;;;5060337;28;20375;-79
2023/05/09 05:56:51;;;;;;;9.35;6.90;;;;;21.40;101269.00;;;;5056040;28;20953;-78
2023/05/09 05:59:19;;;;;;;11.95;8.07;;;;;21.50;101269.00;;;;5061415;28;20664;-79
2023/05/09 06:01:46;;;;;;;11.80;7.70;;;;;21.50;101267.00;;;;5058397;28;20214;-80
2023/05/09 06:04:15;;;;;;;9.73;7.57;;;;;21.50;101257.00;;;;5058130;28;20195;-78
2023/05/09 06:06:42;;;;;;;11.70;7.57;;;;;21.50;101269.00;;;;5049841;28;20199;-78
2023/05/09 06:09:10;;;;;;;12.07;8.13;;;;;21.50;101264.00;;;;5059639;28;20207;-78
2023/05/09 06:11:38;;;;;;;11.13;7.75;;;;;21.50;101255.00;;;;5052540;28;20427;-78
2023/05/09 06:14:05;;;;;;;9.05;7.55;;;;;21.50;101249.00;;;;5053295;28;20198;-78
2023/05/09 06:16:32;;;;;;;12.50;8.00;;;;;21.50;101252.00;;;;5057578;28;20230;-78
2023/05/09 06:19:00;;;;;;;13.23;8.60;;;;;21.50;101244.00;;;;5049422;28;20195;-78
2023/05/09 06:21:29;;;;;;;9.70;7.72;;;;;21.50;101246.00;;;;5054377;28;20209;-78
2023/05/09 06:23:56;;;;;;;12.02;7.75;;;;;21.60;101245.00;;;;5059972;28;20203;-78
2023/05/09 06:26:23;;;;;;;10.45;7.38;;;;;21.60;101238.00;;;;5053074;28;20194;-77
2023/05/09 06:28:50;;;;;;;10.63;8.27;;;;;21.50;101238.00;;;;5052364;28;20192;-78
2023/05/09 06:31:18;;;;;;;14.85;7.25;;;;;21.50;101233.00;;;;5055548;28;20219;-78
2023/05/09 06:33:45;;;;;;;12.88;8.52;;;;;21.60;101232.00;;;;5060725;28;20235;-79
2023/05/09 06:36:12;;;;;;;11.70;8.05;;;;;21.60;101229.00;;;;5057209;28;20218;-78
2023/05/09 06:38:41;;;;;;;10.35;8.02;;;;;21.60;101228.00;;;;5048671;28;20203;-78
2023/05/09 06:41:08;;;;;;;10.77;8.25;;;;;21.60;101228.00;;;;5057450;28;20218;-78
2023/05/09 06:43:35;;;;;;;10.10;8.02;;;;;21.70;101223.00;;;;5060807;28;20198;-78
2023/05/09 06:46:03;;;;;;;13.77;8.52;;;;;21.70;101219.00;;;;5049959;28;21871;-77
2023/05/09 06:48:30;;;;;;;10.50;8.25;;;;;21.70;101223.00;;;;5060293;28;20278;-78
2023/05/09 06:50:57;;;;;;;12.65;8.65;;;;;21.70;101220.00;;;;5056784;28;20199;-78
2023/05/09 06:53:25;;;;;;;9.70;7.70;;;;;21.70;101217.00;;;;5055002;28;20203;-78
2023/05/09 06:55:53;;;;;;;12.18;8.15;;;;;21.70;101217.00;;;;5055228;28;20199;-79
2023/05/09 06:58:21;;;;;;;10.00;7.80;;;;;21.70;101213.00;;;;5047182;28;20210;-78
2023/05/09 07:00:49;;;;;;;13.02;7.93;;;;;21.70;101205.00;;;;5048898;28;20188;-78
2023/05/09 07:03:16;;;;;;;11.43;7.85;;;;;21.70;101212.00;;;;5055142;28;20210;-78
2023/05/09 07:05:44;;;;;;;12.23;7.75;;;;;21.70;101205.00;;;;5056735;28;20192;-78
2023/05/09 07:08:11;;;;;;;11.00;8.05;;;;;21.70;101204.00;;;;5051795;28;20583;-79
2023/05/09 07:10:39;;;;;;;9.80;8.00;;;;;21.70;101214.00;;;;5053578;28;20218;-79
2023/05/09 07:13:07;;;;;;;9.93;7.70;;;;;21.70;101214.00;;;;5049253;28;20318;-78
2023/05/09 07:15:34;;;;;;;9.60;7.78;;;;;21.80;101199.00;;;;5048483;28;21257;-79
2023/05/09 07:18:02;;;;;;;10.18;7.90;;;;;21.80;101202.00;;;;5055800;28;20202;-79
2023/05/09 07:20:29;;;;;;;10.88;7.25;;;;;21.80;101197.00;;;;5052570;28;20192;-79
2023/05/09 07:22:57;;;;;;;9.95;7.57;;;;;21.80;101198.00;;;;5048986;28;20199;-79
2023/05/09 07:25:24;;;;;;;9.70;7.45;;;;;21.80;101198.00;;;;5054250;28;20253;-79
2023/05/09 07:27:52;;;;;;;10.85;7.57;;;;;21.80;101196.00;;;;5053139;28;20191;-79
2023/05/09 07:30:20;;;;;;;8.95;6.55;;;;;21.80;101193.00;;;;5048499;28;20210;-79
2023/05/09 07:32:48;;;;;;;10.85;7.82;;;;;21.80;101192.00;;;;5047646;28;20218;-79
2023/05/09 07:35:15;;;;;;;9.68;7.03;;;;;21.80;101192.00;;;;5047270;28;20231;-79
2023/05/09 07:37:42;;;;;;;9.32;7.30;;;;;21.80;101194.00;;;;5063840;28;20200;-79
2023/05/09 07:40:10;;;;;;;8.35;6.68;;;;;21.80;101185.00;;;;5048110;28;20199;-77
2023/05/09 07:42:38;;;;;;;10.60;7.35;;;;;21.90;101191.00;;;;5056688;28;20655;-78
2023/05/09 07:45:07;;;;;;;8.77;7.05;;;;;21.90;101186.00;;;;5049988;28;20282;-79
2023/05/09 07:47:35;;;;;;;9.32;7.10;;;;;21.90;101189.00;;;;5047763;28;20227;-79
2023/05/09 07:50:03;;;;;;;11.68;7.45;;;;;21.90;101181.00;;;;5046918;28;20200;-79
2023/05/09 07:52:30;;;;;;;7.80;6.38;;;;;21.90;101176.00;;;;5047607;28;20230;-79
2023/05/09 07:54:57;;;;;;;8.35;6.57;;;;;21.90;101176.00;;;;5052875;28;20200;-82
2023/05/09 07:57:25;;;;;;;7.55;5.80;;;;;21.90;101173.00;;;;5048224;28;20200;-80
2023/05/09 07:59:52;;;;;;;9.38;6.15;;;;;21.90;101177.00;;;;5057968;28;20201;-78
2023/05/09 08:02:20;;;;;;;10.35;7.10;;;;;21.90;101170.00;;;;5050738;28;20688;-79
2023/05/09 08:04:48;;;;;;;9.32;6.50;;;;;21.80;101163.00;;;;5054816;28;20200;-79
2023/05/09 08:07:16;;;;;;;7.63;6.05;;;;;21.90;101161.00;;;;5048260;28;20199;-79
2023/05/09 08:09:43;;;;;;;8.20;6.43;;;;;21.80;101157.00;;;;5055763;28;20199;-79
2023/05/09 08:12:10;;;;;;;9.93;7.05;;;;;21.80;101155.00;;;;5050866;28;20215;-79
2023/05/09 08:14:38;;;;;;;8.00;6.43;;;;;21.80;101149.00;;;;5051580;28;20203;-79
2023/05/09 08:17:05;;;;;;;7.43;6.45;;;;;21.80;101147.00;;;;5058189;28;20191;-80
2023/05/09 08:19:32;;;;;;;7.57;5.43;;;;;21.80;101149.00;;;;5051752;28;20203;-79
2023/05/09 08:22:01;;;;;;;7.43;5.63;;;;;21.80;101143.00;;;;5051021;28;20214;-80
2023/05/09 08:24:30;;;;;;;8.63;5.47;;;;;21.80;101143.00;;;;5051211;28;20863;-80
2023/05/09 08:26:58;;;;;;;7.85;6.07;;;;;21.80;101137.00;;;;5050729;28;20210;-79
2023/05/09 08:29:25;;;;;;;9.13;5.93;;;;;21.70;101135.00;;;;5058670;28;20726;-79
2023/05/09 08:31:52;;;;;;;6.70;5.00;;;;;21.80;101133.00;;;;5063205;28;20693;-80
2023/05/09 08:34:21;;;;;;;6.80;5.55;;;;;21.70;101127.00;;;;5058808;28;20223;-80
2023/05/09 08:36:48;;;;;;;8.23;5.50;;;;;21.80;101123.00;;;;5058838;28;20206;-80
2023/05/09 08:39:18;;;;;;;6.90;5.68;;;;;21.70;101117.00;;;;5050382;28;20199;-80
2023/05/09 08:41:45;;;;;;;5.50;4.93;;;;;21.80;101119.00;;;;5050465;28;20310;-80
2023/05/09 08:44:13;;;;;;;6.10;5.05;;;;;21.80;101117.00;;;;5053303;28;20200;-79
2023/05/09 08:46:44;;;;;;;5.07;4.57;;;;;21.70;101115.00;;;;5054289;28;20199;-79
2023/05/09 08:49:11;;;;;;;8.00;5.50;;;;;21.80;101105.00;;;;5055077;28;20194;-80
2023/05/09 08:51:40;;;;;;;7.03;5.20;;;;;21.80;101111.00;;;;5052564;28;20215;-80
2023/05/09 08:54:08;;;;;;;6.47;4.32;;;;;21.80;101104.00;;;;5050992;28;20200;-79
2023/05/09 08:56:37;;;;;;;7.95;5.38;;;;;21.80;101104.00;;;;5051319;28;20218;-79
2023/05/09 08:59:05;;;;;;;6.97;5.05;;;;;21.80;101093.00;;;;5053375;28;20199;-79
2023/05/09 09:01:34;;;;;;;5.05;4.25;;;;;21.80;101099.00;;;;5052004;28;20227;-79
2023/05/09 09:04:04;;;;;;;5.72;4.50;;;;;21.80;101100.00;;;;5058555;28;20200;-78
2023/05/09 09:06:33;;;;;;;5.82;4.30;;;;;21.80;101099.00;;;;5052896;28;20203;-79
2023/05/09 09:09:04;;;;;;;5.53;4.35;;;;;21.70;101100.00;;;;5058078;28;20202;-79
2023/05/09 09:11:33;;;;;;;4.53;4.07;;;;;21.70;101092.00;;;;5051112;28;20861;-79
2023/05/09 09:14:05;;;;;;;4.68;3.80;;;;;21.70;101100.00;;;;5053787;28;20203;-79
2023/05/09 09:16:34;;;;;;;5.68;4.47;;;;;21.70;101100.00;;;;5062910;28;20195;-79
2023/05/09 09:19:02;;;;;;;4.25;3.83;;;;;21.70;101086.00;;;;5050437;28;20200;-79
2023/05/09 09:21:33;;;;;;;4.28;3.85;;;;;21.70;101089.00;;;;5055805;28;20203;-79
2023/05/09 09:24:01;;;;;;;4.07;3.50;;;;;21.70;101086.00;;;;5067624;28;20204;-78
2023/05/09 09:26:30;;;;;;;8.00;4.00;;;;;21.70;101089.00;;;;5053480;28;20206;-79
2023/05/09 09:28:58;;;;;;;4.40;4.00;;;;;21.70;101081.00;;;;5055781;28;20236;-78
2023/05/09 09:31:31;;;;;;;4.90;4.05;;;;;21.70;101074.00;;;;5056402;28;20192;-78
2023/05/09 09:34:02;;;;;;;3.60;3.30;;;;;21.70;101075.00;;;;5050001;28;20251;-79
2023/05/09 09:36:31;;;;;;;4.78;3.60;;;;;21.70;101070.00;;;;5050663;28;20665;-79
2023/05/09 09:39:00;;;;;;;5.00;4.05;;;;;21.70;101075.00;;;;5058100;28;20227;-78
2023/05/09 09:41:32;;;;;;;4.35;3.72;;;;;21.70;101072.00;;;;5050939;28;20196;-78
2023/05/09 09:44:05;;;;;;;3.63;3.15;;;;;21.70;101068.00;;;;5051566;28;20199;-79
2023/05/09 09:46:42;;;;;;;4.38;3.28;;;;;21.60;101068.00;;;;5050554;28;20213;-78
2023/05/09 09:49:10;;;;;;;4.18;3.25;;;;;21.70;101067.00;;;;5050217;28;20257;-78
2023/05/09 09:51:37;;;;;;;3.40;3.05;;;;;21.70;101064.00;;;;5057678;28;21091;-79
2023/05/09 09:54:07;;;;;;;5.05;3.35;;;;;21.70;101063.00;;;;5059493;28;20218;-78
2023/05/09 09:56:45;;;;;;;3.78;3.13;;;;;21.60;101064.00;;;;5054122;28;20208;-78
2023/05/09 09:59:14;;;;;;;4.93;3.25;;;;;21.70;101061.00;;;;5056901;28;20203;-78
2023/05/09 10:01:58;;;;;;;4.07;3.15;;;;;21.60;101061.00;;;;5049465;28;20599;-78
2023/05/09 10:04:27;;;;;;;4.70;3.30;;;;;21.70;101053.00;;;;5053013;28;20198;-78
2023/05/09 10:06:55;;;;;;;7.07;3.40;;;;;21.70;101054.00;;;;5049184;28;20207;-78
2023/05/09 10:09:23;;;;;;;6.95;4.18;;;;;21.70;101054.00;;;;5049456;28;20206;-78
2023/05/09 10:11:52;;;;;;;5.35;3.63;;;;;21.80;101042.00;;;;5049822;28;20191;-79
2023/05/09 10:14:20;;;;;;;3.95;3.40;;;;;21.80;101049.00;;;;5049915;28;20211;-78
2023/05/09 10:16:50;;;;;;;5.63;4.40;;;;;21.80;101053.00;;;;5051359;28;20226;-78
2023/05/09 10:19:21;;;;;;;3.97;3.58;;;;;21.70;101053.00;;;;5058932;28;20200;-79
2023/05/09 10:21:52;;;;;;;3.58;3.28;;;;;21.70;101047.00;;;;5049697;28;20184;-78
2023/05/09 10:24:25;;;;;;;4.75;3.45;;;;;21.80;101046.00;;;;5049352;28;20217;-79
2023/05/09 10:26:55;;;;;;;4.28;3.47;;;;;21.80;101042.00;;;;5052287;28;20206;-78
2023/05/09 10:29:25;;;;;;;3.85;3.45;;;;;21.70;101046.00;;;;5050082;28;20203;-78
2023/05/09 10:31:58;;;;;;;5.68;3.63;;;;;21.70;101042.00;;;;5054328;28;20196;-78
2023/05/09 10:34:31;;;;;;;4.63;3.33;;;;;21.70;101039.00;;;;5050542;28;20231;-78
2023/05/09 10:36:59;;;;;;;3.65;3.17;;;;;21.80;101030.00;;;;5049472;28;20194;-78
2023/05/09 10:39:27;;;;;;;4.45;3.75;;;;;21.70;101024.00;;;;5049149;28;20588;-78
2023/05/09 10:41:55;;;;;;;4.03;3.28;;;;;21.80;101021.00;;;;5054963;28;20203;-78
2023/05/09 10:44:25;;;;;;;4.13;3.33;;;;;21.70;101019.00;;;;5052650;28;20214;-78
2023/05/09 10:46:52;;;;;;;4.18;3.50;;;;;21.80;101010.00;;;;5058825;28;20195;-78
2023/05/09 10:49:20;;;;;;;6.03;3.88;;;;;21.80;101007.00;;;;5058807;28;20217;-78
2023/05/09 10:51:51;;;;;;;18.73;3.97;;;;;21.70;101010.00;;;;5049441;28;20199;-78
2023/05/09 10:54:27;;;;;;;4.00;3.50;;;;;21.60;101000.00;;;;5048642;28;20254;-78
2023/05/09 10:56:55;;;;;;;5.55;3.63;;;;;21.70;101004.00;;;;5051202;28;20889;-78
2023/05/09 10:59:37;;;;;;;6.32;3.47;;;;;21.60;101000.00;;;;5049309;28;20210;-78
2023/05/09 11:02:05;;;;;;;4.75;3.28;;;;;21.70;100993.00;;;;5064371;28;20195;-78
2023/05/09 11:04:33;;;;;;;3.70;2.72;;;;;21.70;100992.00;;;;5050636;28;20199;-78
2023/05/09 11:07:01;;;;;;;3.45;2.65;;;;;21.70;100993.00;;;;5051137;28;20210;-78
2023/05/09 11:09:32;;;;;;;2.83;2.53;;;;;21.70;100986.00;;;;5048172;28;20211;-78
2023/05/09 11:12:07;;;;;;;4.10;3.33;;;;;21.70;100989.00;;;;5047753;28;20222;-77
2023/05/09 11:14:40;;;;;;;3.00;2.70;;;;;21.70;100986.00;;;;5049141;28;20214;-78
2023/05/09 11:17:09;;;;;;;4.55;2.95;;;;;21.70;100987.00;;;;5048316;28;20260;-78
2023/05/09 11:20:02;;;;;;;4.38;2.78;;;;;21.60;100981.00;;;;5048543;28;20191;-78
2023/05/09 11:22:32;;;;;;;4.18;2.90;;;;;21.70;100975.00;;;;5057562;28;20198;-78
2023/05/09 11:25:07;;;;;;;3.63;2.97;;;;;21.70;100971.00;;;;5048843;28;20822;-78
2023/05/09 11:27:43;;;;;;;3.17;2.65;;;;;21.60;100963.00;;;;5048493;28;20199;-78
2023/05/09 11:30:13;;;;;;;3.35;3.03;;;;;21.70;100967.00;;;;5048230;28;20199;-78
2023/05/09 11:32:46;;;;;;;3.00;2.80;;;;;21.70;100962.00;;;;5047659;28;20226;-78
2023/05/09 11:35:16;;;;;;;3.75;3.25;;;;;21.70;100960.00;;;;5047606;28;20600;-78
2023/05/09 11:37:49;;;;;;;3.20;2.63;;;;;21.70;100962.00;;;;5055333;28;20199;-78
2023/05/09 11:40:18;;;;;;;2.80;2.58;;;;;21.70;100963.00;;;;5047690;28;20298;-78
2023/05/09 11:42:46;;;;;;;3.28;2.97;;;;;21.70;100954.00;;;;5055413;28;21040;-78
2023/05/09 11:45:17;;;;;;;3.25;2.95;;;;;21.70;100955.00;;;;5052418;28;20203;-77
2023/05/09 11:47:45;;;;;;;3.33;2.63;;;;;21.70;100956.00;;;;5047226;28;20192;-77
2023/05/09 11:50:14;;;;;;;3.35;3.05;;;;;21.70;100951.00;;;;5047836;28;20200;-78
2023/05/09 11:52:42;;;;;;;3.35;3.03;;;;;21.70;100949.00;;;;5054902;28;20187;-77
2023/05/09 11:55:13;;;;;;;3.08;2.78;;;;;21.60;100947.00;;;;5048349;28;20191;-77
2023/05/09 11:57:41;;;;;;;4.72;2.75;;;;;21.70;100941.00;;;;5047805;28;20670;-77
2023/05/09 12:00:10;;;;;;;2.80;2.58;;;;;21.70;100940.00;;;;5047774;28;20245;-77
2023/05/09 12:02:38;;;;;;;4.28;2.30;;;;;21.70;100941.00;;;;5047897;28;20195;-77
2023/05/09 12:05:09;;;;;;;2.97;2.67;;;;;21.70;100938.00;;;;5047412;28;20226;-77
2023/05/09 12:07:38;;;;;;;3.45;2.65;;;;;21.70;100933.00;;;;5055708;28;20195;-77